createdAt,value
2022-10-21T00:01:35.669Z,98713.59
2022-10-21T00:04:05.659Z,98706.06
2022-10-21T00:06:34.701Z,98701.38
2022-10-21T00:09:05.422Z,98696.22
2022-10-21T00:11:34.547Z,98698.69
2022-10-21T00:14:03.589Z,98694.31
2022-10-21T00:16:32.669Z,98691.59
2022-10-21T00:19:01.740Z,98696.44
2022-10-21T00:21:30.899Z,98688.84
2022-10-21T00:24:00.401Z,98696.50
2022-10-21T00:26:33.800Z,98703.69
2022-10-21T00:29:06.603Z,98694.88
2022-10-21T00:31:35.953Z,98689.31
2022-10-21T00:34:04.983Z,98696.50
2022-10-21T00:36:34.027Z,98680.13
2022-10-21T00:39:03.097Z,98671.72
2022-10-21T00:41:33.528Z,98660.13
2022-10-21T00:44:06.384Z,98665.31
2022-10-21T00:46:40.424Z,98670.13
2022-10-21T00:49:18.906Z,98667.72
2022-10-21T00:51:54.627Z,98678.94
2022-10-21T00:54:27.588Z,98672.91
2022-10-21T00:57:00.390Z,98672.53
2022-10-21T00:59:35.187Z,98672.53
2022-10-21T01:02:04.714Z,98666.13
2022-10-21T01:04:33.709Z,98654.91
2022-10-21T01:07:03.726Z,98648.50
2022-10-21T01:09:32.876Z,98658.13
2022-10-21T01:12:05.277Z,98662.13
2022-10-21T01:14:51.191Z,98667.72
2022-10-21T01:17:44.818Z,98663.69
2022-10-21T01:20:47.244Z,98652.53
2022-10-21T01:24:27.279Z,98647.78
2022-10-21T01:27:26.184Z,98629.75
2022-10-21T01:30:31.471Z,98618.94
2022-10-21T01:33:39.513Z,98613.34
2022-10-21T01:36:26.343Z,98623.75
2022-10-21T01:39:09.015Z,98628.56
2022-10-21T01:41:44.743Z,98623.78
2022-10-21T01:44:24.669Z,98620.56
2022-10-21T01:46:59.934Z,98622.59
2022-10-21T01:49:34.607Z,98623.78
2022-10-21T01:52:05.072Z,98614.22
2022-10-21T01:54:36.870Z,98614.19
2022-10-21T01:57:06.985Z,98615.41
2022-10-21T01:59:36.720Z,98617.41
2022-10-21T02:02:08.416Z,98607.78
2022-10-21T02:04:42.576Z,98607.78
2022-10-21T02:07:11.852Z,98609.41
2022-10-21T02:09:40.965Z,98610.19
2022-10-21T02:12:11.670Z,98602.19
2022-10-21T02:14:46.374Z,98596.56
2022-10-21T02:17:21.058Z,98592.97
2022-10-21T02:19:51.924Z,98606.19
2022-10-21T02:22:23.732Z,98606.19
2022-10-21T02:24:57.472Z,98611.78
2022-10-21T02:27:27.036Z,98604.97
2022-10-21T02:30:00.527Z,98597.38
2022-10-21T02:32:37.645Z,98591.78
2022-10-21T02:35:28.701Z,98588.94
2022-10-21T02:38:05.927Z,98580.09
2022-10-21T02:40:39.076Z,98580.50
2022-10-21T02:43:12.968Z,98579.72
2022-10-21T02:45:42.215Z,98586.91
2022-10-21T02:48:11.282Z,98581.28
2022-10-21T02:50:41.860Z,98575.66
2022-10-21T02:53:12.175Z,98570.84
2022-10-21T02:55:41.235Z,98574.41
2022-10-21T02:58:10.347Z,98581.97
2022-10-21T03:00:39.485Z,98573.97
2022-10-21T03:03:08.516Z,98572.75
2022-10-21T03:05:37.646Z,98574.75
2022-10-21T03:08:08.319Z,98580.31
2022-10-21T03:10:37.365Z,98581.09
2022-10-21T03:13:06.558Z,98575.53
2022-10-21T03:15:35.745Z,98569.84
2022-10-21T03:18:04.918Z,98571.44
2022-10-21T03:20:33.966Z,98573.00
2022-10-21T03:23:03.024Z,98571.41
2022-10-21T03:25:35.729Z,98570.97
2022-10-21T03:28:05.222Z,98572.53
2022-10-21T03:30:34.216Z,98573.31
2022-10-21T03:33:03.375Z,98574.44
2022-10-21T03:35:32.469Z,98560.81
2022-10-21T03:38:01.543Z,98565.94
2022-10-21T03:40:31.032Z,98565.97
2022-10-21T03:43:01.671Z,98559.16
2022-10-21T03:45:30.796Z,98568.75
2022-10-21T03:47:59.972Z,98562.34
2022-10-21T03:50:29.012Z,98555.97
2022-10-21T03:52:59.351Z,98563.19
2022-10-21T03:55:29.051Z,98568.84
2022-10-21T03:57:58.205Z,98572.09
2022-10-21T04:00:31.632Z,98571.34
2022-10-21T04:03:00.974Z,98570.97
2022-10-21T04:05:30.084Z,98572.97
2022-10-21T04:07:59.177Z,98573.00
2022-10-21T04:10:28.148Z,98563.41
2022-10-21T04:12:57.199Z,98558.63
2022-10-21T04:15:26.386Z,98551.47
2022-10-21T04:17:56.812Z,98557.06
2022-10-21T04:20:26.893Z,98547.50
2022-10-21T04:22:55.955Z,98554.34
2022-10-21T04:25:25.124Z,98555.16
2022-10-21T04:27:54.197Z,98563.56
2022-10-21T04:30:23.511Z,98558.00
2022-10-21T04:32:52.614Z,98553.97
2022-10-21T04:35:23.369Z,98563.59
2022-10-21T04:37:52.492Z,98564.38
2022-10-21T04:40:22.528Z,98557.22
2022-10-21T04:42:51.816Z,98550.03
2022-10-21T04:45:21.390Z,98556.84
2022-10-21T04:47:50.477Z,98548.44
2022-10-21T04:50:19.777Z,98537.22
2022-10-21T04:52:50.259Z,98532.44
2022-10-21T04:55:19.582Z,98531.63
2022-10-21T04:57:48.710Z,98527.63
2022-10-21T05:00:17.955Z,98521.22
2022-10-21T05:02:47.075Z,98522.03
2022-10-21T05:05:16.204Z,98526.03
2022-10-21T05:07:45.341Z,98520.81
2022-10-21T05:10:16.001Z,98510.81
2022-10-21T05:12:45.088Z,98514.81
2022-10-21T05:15:14.706Z,98525.22
2022-10-21T05:17:43.907Z,98522.81
2022-10-21T05:20:13.614Z,98520.44
2022-10-21T05:22:42.790Z,98513.22
2022-10-21T05:25:12.265Z,98518.44
2022-10-21T05:27:42.802Z,98512.41
2022-10-21T05:30:13.453Z,98501.63
2022-10-21T05:32:43.068Z,98501.22
2022-10-21T05:35:12.729Z,98506.81
2022-10-21T05:37:41.776Z,98519.25
2022-10-21T05:40:12.047Z,98506.84
2022-10-21T05:42:42.475Z,98505.25
2022-10-21T05:45:12.916Z,98506.41
2022-10-21T05:47:42.760Z,98509.63
2022-10-21T05:50:13.471Z,98498.81
2022-10-21T05:52:42.908Z,98502.03
2022-10-21T05:55:12.098Z,98506.03
2022-10-21T05:57:42.633Z,98525.25
2022-10-21T06:00:14.022Z,98525.28
2022-10-21T06:02:43.135Z,98526.06
2022-10-21T06:05:12.183Z,98526.88
2022-10-21T06:07:41.653Z,98519.66
2022-10-21T06:10:12.203Z,98519.25
2022-10-21T06:12:42.649Z,98509.63
2022-10-21T06:15:12.591Z,98507.63
2022-10-21T06:17:41.775Z,98509.19
2022-10-21T06:20:11.698Z,98524.41
2022-10-21T06:22:40.768Z,98526.00
2022-10-21T06:25:10.496Z,98534.78
2022-10-21T06:27:39.781Z,98530.34
2022-10-21T06:30:12.596Z,98531.53
2022-10-21T06:32:41.630Z,98518.63
2022-10-21T06:35:10.810Z,98534.19
2022-10-21T06:37:40.339Z,98533.75
2022-10-21T06:40:11.014Z,98532.06
2022-10-21T06:42:40.678Z,98537.28
2022-10-21T06:45:12.292Z,98536.13
2022-10-21T06:47:41.696Z,98539.38
2022-10-21T06:50:13.161Z,98528.94
2022-10-21T06:52:42.632Z,98532.16
2022-10-21T06:55:11.794Z,98532.25
2022-10-21T06:57:41.078Z,98534.69
2022-10-21T07:00:13.943Z,98540.31
2022-10-21T07:02:43.189Z,98545.97
2022-10-21T07:05:12.205Z,98554.81
2022-10-21T07:07:41.630Z,98554.81
2022-10-21T07:10:11.184Z,98553.53
2022-10-21T07:12:40.370Z,98547.44
2022-10-21T07:15:12.290Z,98552.53
2022-10-21T07:17:41.672Z,98555.19
2022-10-21T07:20:11.572Z,98552.88
2022-10-21T07:22:40.835Z,98539.53
2022-10-21T07:25:10.482Z,98547.13
2022-10-21T07:27:41.242Z,98550.72
2022-10-21T07:30:14.068Z,98548.28
2022-10-21T07:32:43.131Z,98552.69
2022-10-21T07:35:12.181Z,98550.91
2022-10-21T07:37:41.489Z,98539.84
2022-10-21T07:40:12.675Z,98541.69
2022-10-21T07:42:41.804Z,98530.03
2022-10-21T07:45:11.509Z,98538.50
2022-10-21T07:47:42.130Z,98538.00
2022-10-21T07:50:12.660Z,98530.13
2022-10-21T07:52:51.929Z,98536.94
2022-10-21T07:55:32.905Z,98533.69
2022-10-21T07:58:01.972Z,98534.91
2022-10-21T08:00:31.051Z,98529.56
2022-10-21T08:03:01.546Z,98528.00
2022-10-21T08:05:30.607Z,98531.44
2022-10-21T08:08:00.008Z,98536.34
2022-10-21T08:10:29.114Z,98532.13
2022-10-21T08:12:58.205Z,98531.84
2022-10-21T08:15:27.318Z,98532.03
2022-10-21T08:17:56.396Z,98518.50
2022-10-21T08:20:26.932Z,98520.09
2022-10-21T08:22:56.016Z,98509.47
2022-10-21T08:25:29.964Z,98512.66
2022-10-21T08:27:59.084Z,98508.53
2022-10-21T08:30:30.022Z,98494.63
2022-10-21T08:33:00.256Z,98503.84
2022-10-21T08:35:32.018Z,98496.22
2022-10-21T08:38:01.532Z,98502.13
2022-10-21T08:40:35.524Z,98506.75
2022-10-21T08:43:10.733Z,98509.81
2022-10-21T08:45:47.304Z,98513.56
2022-10-21T08:48:22.497Z,98498.88
2022-10-21T08:50:56.561Z,98488.16
2022-10-21T08:53:34.124Z,98494.47
2022-10-21T08:56:08.672Z,98487.75
2022-10-21T08:58:37.772Z,98480.69
2022-10-21T09:01:19.503Z,98484.22
2022-10-21T09:03:54.666Z,98486.41
2022-10-21T09:06:29.319Z,98473.13
2022-10-21T09:09:08.072Z,98463.22
2022-10-21T09:11:53.069Z,98469.53
2022-10-21T09:14:47.841Z,98461.91
2022-10-21T09:17:45.916Z,98459.09
2022-10-21T09:20:30.096Z,98454.16
2022-10-21T09:23:12.263Z,98457.56
2022-10-21T09:25:49.383Z,98444.81
2022-10-21T09:28:18.547Z,98437.59
2022-10-21T09:30:48.807Z,98433.72
2022-10-21T09:33:24.428Z,98442.78
2022-10-21T09:36:00.296Z,98451.19
2022-10-21T09:38:43.518Z,98438.50
2022-10-21T09:41:19.300Z,98435.00
2022-10-21T09:43:50.783Z,98427.41
2022-10-21T09:46:20.713Z,98436.97
2022-10-21T09:49:41.561Z,98441.94
2022-10-21T09:51:42.820Z,98441.31
2022-10-21T09:54:26.224Z,98439.75
2022-10-21T09:57:01.441Z,98423.81
2022-10-21T09:59:33.238Z,98431.06
2022-10-21T10:02:08.732Z,98427.28
2022-10-21T10:04:38.041Z,98432.66
2022-10-21T10:07:28.341Z,98411.41
2022-10-21T10:09:58.866Z,98410.81
2022-10-21T10:12:30.457Z,98411.00
2022-10-21T10:15:29.339Z,98405.94
2022-10-21T10:18:02.008Z,98402.25
2022-10-21T10:20:31.213Z,98405.25
2022-10-21T10:23:18.550Z,98406.59
2022-10-21T10:25:53.181Z,98403.13
2022-10-21T10:28:26.663Z,98395.91
2022-10-21T10:30:57.166Z,98393.31
2022-10-21T10:33:30.464Z,98387.00
2022-10-21T10:36:03.326Z,98383.59
2022-10-21T10:38:37.465Z,98386.84
2022-10-21T10:41:12.312Z,98380.81
2022-10-21T10:43:47.468Z,98377.41
2022-10-21T10:46:26.746Z,98379.94
2022-10-21T10:48:58.450Z,98375.88
2022-10-21T10:51:32.352Z,98388.47
2022-10-21T10:54:16.643Z,98379.84
2022-10-21T10:56:54.595Z,98372.91
2022-10-21T10:59:31.754Z,98367.31
2022-10-21T11:02:17.411Z,98366.28
2022-10-21T11:05:24.187Z,98369.25
2022-10-21T11:07:55.251Z,98357.88
2022-10-21T11:10:33.566Z,98352.38
2022-10-21T11:13:10.752Z,98342.06
2022-10-21T11:16:12.410Z,98342.66
2022-10-21T11:18:51.341Z,98332.09
2022-10-21T11:21:43.737Z,98323.66
2022-10-21T11:24:45.601Z,98323.34
2022-10-21T11:27:27.133Z,98327.22
2022-10-21T11:30:09.463Z,98321.41
2022-10-21T11:33:02.141Z,98308.44
2022-10-21T11:35:43.702Z,98312.13
2022-10-21T11:38:55.045Z,98314.25
2022-10-21T11:41:36.266Z,98307.75
2022-10-21T11:44:22.041Z,98305.50
2022-10-21T11:47:06.794Z,98289.13
2022-10-21T11:49:55.700Z,98291.44
2022-10-21T11:52:41.659Z,98285.66
2022-10-21T11:55:39.665Z,98293.56
2022-10-21T11:58:34.140Z,98280.72
2022-10-21T12:01:25.585Z,98289.91
2022-10-21T12:04:30.413Z,98287.09
2022-10-21T12:07:35.415Z,98289.16
2022-10-21T12:10:13.161Z,98284.25
2022-10-21T12:12:47.635Z,98293.34
2022-10-21T12:15:21.655Z,98272.34
2022-10-21T12:17:52.281Z,98278.81
2022-10-21T12:20:27.235Z,98271.16
2022-10-21T12:23:06.516Z,98261.88
2022-10-21T12:25:43.559Z,98266.84
2022-10-21T12:28:25.431Z,98268.03
2022-10-21T12:31:01.610Z,98259.00
2022-10-21T12:33:40.075Z,98258.13
2022-10-21T12:36:41.033Z,98255.28
2022-10-21T12:39:17.858Z,98261.47
2022-10-21T12:41:48.956Z,98249.38
2022-10-21T12:44:27.665Z,98256.00
2022-10-21T12:47:04.054Z,98249.06
2022-10-21T12:49:35.987Z,98251.31
2022-10-21T12:52:12.672Z,98250.97
2022-10-21T12:54:57.116Z,98241.34
2022-10-21T12:57:31.756Z,98256.97
2022-10-21T13:00:45.420Z,98240.56
2022-10-21T13:03:20.515Z,98236.38
2022-10-21T13:06:07.166Z,98231.47
2022-10-21T13:08:54.262Z,98228.41
2022-10-21T13:11:38.488Z,98223.00
2022-10-21T13:14:35.453Z,98223.44
2022-10-21T13:17:54.571Z,98217.44
2022-10-21T13:20:49.146Z,98221.16
2022-10-21T13:23:44.455Z,98219.91
2022-10-21T13:26:24.171Z,98212.31
2022-10-21T13:29:09.418Z,98220.81
2022-10-21T13:31:44.097Z,98217.75
2022-10-21T13:34:29.937Z,98201.25
2022-10-21T13:37:00.319Z,98216.88
2022-10-21T13:39:35.565Z,98201.47
2022-10-21T13:42:10.729Z,98207.44
2022-10-21T13:44:51.473Z,98211.41
2022-10-21T13:47:30.210Z,98197.38
2022-10-21T13:50:05.598Z,98194.63
2022-10-21T13:52:34.640Z,98204.25
2022-10-21T13:55:08.005Z,98201.44
2022-10-21T13:57:38.196Z,98206.00
2022-10-21T14:00:18.515Z,98200.78
2022-10-21T14:02:49.190Z,98201.25
2022-10-21T14:05:34.279Z,98196.47
2022-10-21T14:08:05.582Z,98207.06
2022-10-21T14:10:39.473Z,98212.97
2022-10-21T14:13:08.714Z,98190.34
2022-10-21T14:15:44.752Z,98201.53
2022-10-21T14:18:31.240Z,98206.50
2022-10-21T14:21:03.255Z,98193.59
2022-10-21T14:23:32.554Z,98187.13
2022-10-21T14:26:08.153Z,98202.38
2022-10-21T14:28:38.828Z,98190.81
2022-10-21T14:31:14.383Z,98190.03
2022-10-21T14:33:47.019Z,98188.94
2022-10-21T14:36:20.543Z,98186.66
2022-10-21T14:38:58.723Z,98191.41
2022-10-21T14:41:33.916Z,98188.72
2022-10-21T14:44:09.336Z,98195.97
2022-10-21T14:46:44.871Z,98183.06
2022-10-21T14:49:25.084Z,98179.88
2022-10-21T14:52:01.733Z,98175.13
2022-10-21T14:54:42.087Z,98169.59
2022-10-21T14:57:36.316Z,98180.19
2022-10-21T15:00:10.254Z,98179.75
2022-10-21T15:02:40.077Z,98179.09
2022-10-21T15:05:34.615Z,98169.91
2022-10-21T15:08:32.187Z,98168.13
2022-10-21T15:11:24.477Z,98167.63
2022-10-21T15:14:28.760Z,98160.22
2022-10-21T15:17:02.088Z,98168.13
2022-10-21T15:19:50.288Z,98160.97
2022-10-21T15:22:33.985Z,98168.81
2022-10-21T15:25:10.127Z,98158.75
2022-10-21T15:27:42.588Z,98162.81
2022-10-21T15:30:20.000Z,98158.75
2022-10-21T15:32:50.845Z,98155.22
2022-10-21T15:35:22.829Z,98156.09
2022-10-21T15:37:53.999Z,98163.94
2022-10-21T15:40:24.274Z,98160.13
2022-10-21T15:42:53.680Z,98167.72
2022-10-21T15:45:24.400Z,98152.16
2022-10-21T15:47:55.611Z,98151.00
2022-10-21T15:50:27.526Z,98159.22
2022-10-21T15:55:33.607Z,98153.00
2022-10-21T15:58:02.796Z,98145.84
2022-10-21T16:00:40.050Z,98153.00
2022-10-21T16:03:10.180Z,98161.75
2022-10-21T16:05:40.337Z,98181.94
2022-10-21T16:08:13.289Z,98189.69
2022-10-21T16:10:47.905Z,98180.94
2022-10-21T16:13:17.735Z,98189.09
2022-10-21T16:15:48.376Z,98184.41
2022-10-21T16:18:17.362Z,98188.31
2022-10-21T16:20:46.485Z,98198.88
2022-10-21T16:23:15.624Z,98194.09
2022-10-21T16:25:44.721Z,98189.31
2022-10-21T16:28:13.823Z,98192.63
2022-10-21T16:30:42.988Z,98191.06
2022-10-21T16:33:13.437Z,98189.47
2022-10-21T16:35:42.944Z,98191.94
2022-10-21T16:38:12.598Z,98178.34
2022-10-21T16:40:41.668Z,98181.66
2022-10-21T16:43:15.058Z,98177.91
2022-10-21T16:45:45.440Z,98184.25
2022-10-21T16:48:16.001Z,98181.03
2022-10-21T16:50:47.580Z,98183.38
2022-10-21T16:53:18.439Z,98180.13
2022-10-21T16:55:47.645Z,98190.06
2022-10-21T16:58:16.705Z,98181.75
2022-10-21T17:00:46.942Z,98174.13
2022-10-21T17:03:17.399Z,98170.06
2022-10-21T17:05:46.461Z,98176.28
2022-10-21T17:08:15.488Z,98188.50
2022-10-21T17:10:44.682Z,98191.31
2022-10-21T17:13:14.214Z,98182.50
2022-10-21T17:15:43.477Z,98196.22
2022-10-21T17:18:15.550Z,98195.41
2022-10-21T17:20:46.487Z,98196.22
2022-10-21T17:23:15.751Z,98205.06
2022-10-21T17:25:44.728Z,98204.53
2022-10-21T17:28:14.410Z,98212.09
2022-10-21T17:30:43.467Z,98207.97
2022-10-21T17:33:14.264Z,98213.59
2022-10-21T17:35:45.431Z,98207.09
2022-10-21T17:38:15.064Z,98215.19
2022-10-21T17:40:44.136Z,98205.56
2022-10-21T17:43:13.239Z,98211.56
2022-10-21T17:45:42.419Z,98209.16
2022-10-21T17:48:11.915Z,98215.13
2022-10-21T17:50:41.043Z,98209.06
2022-10-21T17:53:11.661Z,98208.22
2022-10-21T17:55:40.671Z,98201.34
2022-10-21T17:58:09.690Z,98195.25
2022-10-21T18:00:44.485Z,98200.13
2022-10-21T18:03:17.979Z,98207.00
2022-10-21T18:05:47.589Z,98195.31
2022-10-21T18:08:18.084Z,98200.13
2022-10-21T18:10:55.240Z,98193.66
2022-10-21T18:13:24.909Z,98202.47
2022-10-21T18:15:54.811Z,98196.31
2022-10-21T18:18:25.865Z,98204.28
2022-10-21T18:20:54.859Z,98200.00
2022-10-21T18:23:25.290Z,98212.53
2022-10-21T18:25:54.353Z,98226.66
2022-10-21T18:28:23.749Z,98218.59
2022-10-21T18:30:52.963Z,98208.22
2022-10-21T18:33:22.110Z,98205.38
2022-10-21T18:35:51.539Z,98218.22
2022-10-21T18:38:20.733Z,98225.81
2022-10-21T18:41:01.909Z,98226.94
2022-10-21T18:43:38.604Z,98219.72
2022-10-21T18:46:07.667Z,98240.75
2022-10-21T18:48:37.570Z,98231.66
2022-10-21T18:51:08.021Z,98239.41
2022-10-21T18:53:40.052Z,98233.78
2022-10-21T18:56:15.081Z,98241.81
2022-10-21T18:58:45.431Z,98243.28
2022-10-21T19:01:15.755Z,98245.63
2022-10-21T19:03:45.645Z,98242.44
2022-10-21T19:06:29.762Z,98248.34
2022-10-21T19:09:01.155Z,98243.66
2022-10-21T19:11:32.157Z,98237.41
2022-10-21T19:14:01.217Z,98242.59
2022-10-21T19:16:30.248Z,98254.75
2022-10-21T19:18:59.749Z,98253.22
2022-10-21T19:21:29.126Z,98255.59
2022-10-21T19:24:01.424Z,98245.31
2022-10-21T19:26:33.179Z,98253.06
2022-10-21T19:29:04.909Z,98261.13
2022-10-21T19:31:36.091Z,98255.97
2022-10-21T19:34:05.486Z,98254.38
2022-10-21T19:36:34.969Z,98251.22
2022-10-21T19:39:04.026Z,98261.72
2022-10-21T19:41:34.771Z,98261.38
2022-10-21T19:44:04.428Z,98276.22
2022-10-21T19:46:35.994Z,98275.38
2022-10-21T19:49:08.068Z,98270.25
2022-10-21T19:51:38.436Z,98277.13
2022-10-21T19:54:10.403Z,98274.69
2022-10-21T19:56:41.536Z,98277.94
2022-10-21T19:59:11.875Z,98287.22
2022-10-21T20:01:41.215Z,98296.50
2022-10-21T20:04:10.689Z,98291.41
2022-10-21T20:06:41.103Z,98301.50
2022-10-21T20:09:12.808Z,98295.03
2022-10-21T20:11:43.675Z,98302.31
2022-10-21T20:14:14.168Z,98302.34
2022-10-21T20:16:44.244Z,98307.97
2022-10-21T20:19:13.903Z,98313.25
2022-10-21T20:21:44.115Z,98321.69
2022-10-21T20:24:16.550Z,98312.53
2022-10-21T20:26:51.173Z,98312.22
2022-10-21T20:29:20.510Z,98307.50
2022-10-21T20:31:49.610Z,98301.94
2022-10-21T20:34:18.720Z,98310.81
2022-10-21T20:36:47.819Z,98318.91
2022-10-21T20:39:16.858Z,98321.72
2022-10-21T20:41:47.412Z,98322.06
2022-10-21T20:44:18.006Z,98316.47
2022-10-21T20:46:47.220Z,98320.50
2022-10-21T20:49:16.384Z,98321.72
2022-10-21T20:51:45.346Z,98323.00
2022-10-21T20:54:18.695Z,98321.84
2022-10-21T20:56:49.341Z,98319.00
2022-10-21T20:59:18.591Z,98322.59
2022-10-21T21:01:48.906Z,98317.38
2022-10-21T21:04:20.785Z,98318.16
2022-10-21T21:06:51.567Z,98326.13
2022-10-21T21:09:50.032Z,98329.28
2022-10-21T21:12:13.412Z,98333.25
2022-10-21T21:14:42.484Z,98323.75
2022-10-21T21:17:11.755Z,98320.59
2022-10-21T21:19:40.951Z,98319.34
2022-10-21T21:22:10.165Z,98309.72
2022-10-21T21:24:39.145Z,98316.88
2022-10-21T21:27:08.308Z,98317.25
2022-10-21T21:29:38.774Z,98323.31
2022-10-21T21:32:07.839Z,98319.78
2022-10-21T21:34:36.870Z,98323.84
2022-10-21T21:37:06.248Z,98327.00
2022-10-21T21:39:35.288Z,98315.78
2022-10-21T21:42:04.401Z,98302.97
2022-10-21T21:44:33.375Z,98303.81
2022-10-21T21:47:04.630Z,98313.41
2022-10-21T21:49:33.663Z,98313.75
2022-10-21T21:52:02.793Z,98310.94
2022-10-21T21:54:31.827Z,98310.19
2022-10-21T21:57:27.191Z,98309.44
2022-10-21T21:59:49.924Z,98295.84
2022-10-21T22:02:20.376Z,98308.28
2022-10-21T22:04:49.464Z,98303.88
2022-10-21T22:07:19.348Z,98309.38
2022-10-21T22:09:49.308Z,98310.97
2022-10-21T22:12:20.886Z,98318.22
2022-10-21T22:14:52.310Z,98315.16
2022-10-21T22:17:22.863Z,98318.34
2022-10-21T22:19:53.951Z,98307.91
2022-10-21T22:22:23.139Z,98309.53
2022-10-21T22:24:52.293Z,98300.72
2022-10-21T22:27:21.344Z,98302.34
2022-10-21T22:29:50.355Z,98304.72
2022-10-21T22:32:19.505Z,98303.09
2022-10-21T22:34:50.184Z,98297.47
2022-10-21T22:37:19.175Z,98289.44
2022-10-21T22:39:48.196Z,98297.00
2022-10-21T22:42:17.231Z,98293.25
2022-10-21T22:44:46.250Z,98303.66
2022-10-21T22:47:15.777Z,98297.28
2022-10-21T22:49:45.324Z,98291.75
2022-10-21T22:52:16.003Z,98290.50
2022-10-21T22:54:49.604Z,98292.47
2022-10-21T22:57:18.948Z,98281.25
2022-10-21T22:59:52.885Z,98281.34
2022-10-21T23:02:22.311Z,98279.34
2022-10-21T23:04:51.350Z,98278.63
2022-10-21T23:07:21.839Z,98279.81
2022-10-21T23:09:51.411Z,98285.31
2022-10-21T23:12:20.629Z,98278.91
2022-10-21T23:14:49.671Z,98275.75
2022-10-21T23:17:18.715Z,98281.75
2022-10-21T23:19:47.767Z,98284.56
2022-10-21T23:22:16.811Z,98289.44
2022-10-21T23:24:47.417Z,98290.25
2022-10-21T23:27:16.456Z,98288.16
2022-10-21T23:29:45.542Z,98292.56
2022-10-21T23:32:14.801Z,98288.53
2022-10-21T23:34:43.834Z,98282.16
2022-10-21T23:37:12.908Z,98280.38
2022-10-21T23:39:42.068Z,98278.78
2022-10-21T23:42:12.485Z,98283.50
2022-10-21T23:44:41.524Z,98273.97
2022-10-21T23:47:10.570Z,98274.38
2022-10-21T23:49:39.677Z,98278.78
2022-10-21T23:52:08.703Z,98270.78
2022-10-21T23:54:37.968Z,98266.59
2022-10-21T23:57:07.007Z,98255.88
2022-10-21T23:59:37.474Z,98262.66
